Time;durP1;ratioP1;P1;durP2;ratioP2;P2;SDS_P1;SDS_P2;PMS_P1;PMS_P2;Temp;Humidity;BMP_temperature;BMP_pressure;BME280_temperature;BME280_humidity;BME280_pressure;Samples;Min_cycle;Max_cycle;Signal;HPM_P1;HPM_P2
2023/04/27 00:00:47;;;;;;;;;8.75;6.75;;;;;;;;5040433;28;61836;-82
2023/04/27 00:03:12;;;;;;;;;11.25;9.50;;;;;;;;5039289;28;61966;-82
2023/04/27 00:05:38;;;;;;;;;13.25;9.00;;;;;;;;5041459;28;61771;-82
2023/04/27 00:08:04;;;;;;;;;12.00;10.75;;;;;;;;5040101;28;61706;-82
2023/04/27 00:10:29;;;;;;;;;12.75;10.75;;;;;;;;5040663;28;61732;-82
2023/04/27 00:12:54;;;;;;;;;12.00;8.25;;;;;;;;5041218;28;62008;-82
2023/04/27 00:15:20;;;;;;;;;15.00;11.50;;;;;;;;5041419;28;61869;-81
2023/04/27 00:17:45;;;;;;;;;13.50;11.00;;;;;;;;5040905;28;62012;-81
2023/04/27 00:20:11;;;;;;;;;10.50;10.00;;;;;;;;5041004;28;61857;-82
2023/04/27 00:22:39;;;;;;;;;10.25;9.25;;;;;;;;5041003;28;61791;-82
2023/04/27 00:25:05;;;;;;;;;15.00;9.00;;;;;;;;5041340;28;61795;-82
2023/04/27 00:27:30;;;;;;;;;16.25;13.00;;;;;;;;5041371;28;61920;-82
2023/04/27 00:29:56;;;;;;;;;13.75;13.50;;;;;;;;5040644;28;61800;-82
2023/04/27 00:32:21;;;;;;;;;12.25;9.50;;;;;;;;5040174;28;61735;-82
2023/04/27 00:34:46;;;;;;;;;19.25;16.00;;;;;;;;5040832;28;62393;-82
2023/04/27 00:37:12;;;;;;;;;18.50;11.00;;;;;;;;5041226;28;62136;-82
2023/04/27 00:39:37;;;;;;;;;13.50;11.75;;;;;;;;5039919;28;62730;-82
2023/04/27 00:42:02;;;;;;;;;16.25;15.00;;;;;;;;5039700;28;61920;-82
2023/04/27 00:44:27;;;;;;;;;16.00;14.00;;;;;;;;5040769;28;61933;-82
2023/04/27 00:46:53;;;;;;;;;16.50;13.50;;;;;;;;5040590;28;61993;-82
2023/04/27 00:49:19;;;;;;;;;15.25;11.75;;;;;;;;5040354;28;62156;-82
2023/04/27 00:51:45;;;;;;;;;11.25;11.00;;;;;;;;5040581;28;61715;-82
2023/04/27 00:54:10;;;;;;;;;13.75;9.75;;;;;;;;5040691;28;62142;-82
2023/04/27 00:56:36;;;;;;;;;10.25;9.25;;;;;;;;5041577;28;61916;-82
2023/04/27 00:59:01;;;;;;;;;17.25;10.25;;;;;;;;5043554;28;61842;-82
2023/04/27 01:01:28;;;;;;;;;14.75;8.75;;;;;;;;5044076;28;62012;-81
2023/04/27 01:03:53;;;;;;;;;10.25;9.00;;;;;;;;5022756;28;61803;-82
2023/04/27 01:06:19;;;;;;;;;12.50;11.25;;;;;;;;5027901;28;61934;-82
2023/04/27 01:08:45;;;;;;;;;12.50;8.00;;;;;;;;5029667;28;62282;-82
2023/04/27 01:11:10;;;;;;;;;13.75;10.00;;;;;;;;5022177;28;61977;-81
2023/04/27 01:13:36;;;;;;;;;13.25;10.00;;;;;;;;5029912;28;61657;-81
2023/04/27 01:16:01;;;;;;;;;20.25;14.25;;;;;;;;5041580;28;62009;-81
2023/04/27 01:18:26;;;;;;;;;10.50;8.50;;;;;;;;5041419;28;64948;-82
2023/04/27 01:20:52;;;;;;;;;11.75;10.50;;;;;;;;5043867;28;61835;-82
2023/04/27 01:23:17;;;;;;;;;12.25;9.75;;;;;;;;5043785;28;61899;-82
2023/04/27 01:25:42;;;;;;;;;13.00;9.00;;;;;;;;5040940;28;61771;-82
2023/04/27 01:28:08;;;;;;;;;11.75;7.50;;;;;;;;5043013;28;61685;-81
2023/04/27 01:30:33;;;;;;;;;12.00;9.50;;;;;;;;5042373;28;61923;-82
2023/04/27 01:32:58;;;;;;;;;13.00;8.50;;;;;;;;5042908;28;61893;-81
2023/04/27 01:35:23;;;;;;;;;8.75;8.75;;;;;;;;5040704;28;61696;-81
2023/04/27 01:37:50;;;;;;;;;10.00;6.75;;;;;;;;5022938;28;62583;-81
2023/04/27 01:40:18;;;;;;;;;8.25;7.00;;;;;;;;5043440;28;61957;-82
2023/04/27 01:42:43;;;;;;;;;12.00;10.00;;;;;;;;5043611;28;61794;-81
2023/04/27 01:45:09;;;;;;;;;12.50;9.75;;;;;;;;5041743;28;61882;-82
2023/04/27 01:47:34;;;;;;;;;11.00;9.25;;;;;;;;5041807;28;64784;-82
2023/04/27 01:50:00;;;;;;;;;13.00;7.75;;;;;;;;5043466;28;61789;-82
2023/04/27 01:52:25;;;;;;;;;9.00;7.75;;;;;;;;5043327;28;62025;-82
2023/04/27 01:54:50;;;;;;;;;8.50;8.50;;;;;;;;5043513;28;61779;-82
2023/04/27 01:57:16;;;;;;;;;13.00;7.00;;;;;;;;5042554;28;61888;-82
2023/04/27 01:59:41;;;;;;;;;12.00;6.75;;;;;;;;5041874;28;61829;-82
2023/04/27 02:02:06;;;;;;;;;9.50;7.00;;;;;;;;5042662;28;61885;-81
2023/04/27 02:04:32;;;;;;;;;14.75;8.75;;;;;;;;5043908;28;61862;-82
2023/04/27 02:06:57;;;;;;;;;8.75;7.75;;;;;;;;5042822;28;62502;-82
2023/04/27 02:09:22;;;;;;;;;6.75;6.75;;;;;;;;5041754;28;61934;-82
2023/04/27 02:11:48;;;;;;;;;9.00;7.50;;;;;;;;5043587;28;61836;-82
2023/04/27 02:14:13;;;;;;;;;6.75;6.00;;;;;;;;5041085;28;61880;-82
2023/04/27 02:16:38;;;;;;;;;8.00;8.00;;;;;;;;5042828;28;62046;-82
2023/04/27 02:19:03;;;;;;;;;9.00;8.50;;;;;;;;5043003;28;61809;-82
2023/04/27 02:21:29;;;;;;;;;7.00;6.25;;;;;;;;5043224;28;61922;-82
2023/04/27 02:23:54;;;;;;;;;16.75;7.00;;;;;;;;5041674;28;61841;-83
2023/04/27 02:26:21;;;;;;;;;8.25;8.25;;;;;;;;5040914;28;63495;-82
2023/04/27 02:28:46;;;;;;;;;10.25;7.00;;;;;;;;5042780;28;61833;-82
2023/04/27 02:31:12;;;;;;;;;12.00;9.00;;;;;;;;5042822;28;61844;-82
2023/04/27 02:33:38;;;;;;;;;11.75;10.25;;;;;;;;5041045;28;62110;-81
2023/04/27 02:36:03;;;;;;;;;9.00;9.00;;;;;;;;5041491;28;61918;-82
2023/04/27 02:38:30;;;;;;;;;10.25;8.75;;;;;;;;5041851;28;61727;-82
2023/04/27 02:40:55;;;;;;;;;8.75;8.75;;;;;;;;5042923;28;61795;-82
2023/04/27 02:43:21;;;;;;;;;8.00;6.75;;;;;;;;5042289;28;61765;-82
2023/04/27 02:45:46;;;;;;;;;9.75;9.75;;;;;;;;5042039;28;62551;-82
2023/04/27 02:48:11;;;;;;;;;8.75;7.25;;;;;;;;5042526;28;61656;-82
2023/04/27 02:50:41;;;;;;;;;10.00;8.75;;;;;;;;5042506;28;61745;-82
2023/04/27 02:53:06;;;;;;;;;11.25;9.25;;;;;;;;5042360;28;62044;-81
2023/04/27 02:55:31;;;;;;;;;11.25;9.00;;;;;;;;5041409;28;61843;-82
2023/04/27 02:57:56;;;;;;;;;9.00;8.00;;;;;;;;5057584;28;61942;-82
2023/04/27 03:00:22;;;;;;;;;15.50;10.75;;;;;;;;5042721;28;61810;-82
2023/04/27 03:02:47;;;;;;;;;15.00;10.75;;;;;;;;5042397;28;61892;-81
2023/04/27 03:05:12;;;;;;;;;20.00;12.50;;;;;;;;5041782;28;61962;-82
2023/04/27 03:07:37;;;;;;;;;11.00;11.00;;;;;;;;5042055;28;62135;-82
2023/04/27 03:10:03;;;;;;;;;16.75;15.00;;;;;;;;5042205;28;61952;-82
2023/04/27 03:12:28;;;;;;;;;16.50;13.75;;;;;;;;5041898;28;61820;-82
2023/04/27 03:14:53;;;;;;;;;14.25;11.75;;;;;;;;5041484;28;61906;-82
2023/04/27 03:17:18;;;;;;;;;17.25;13.50;;;;;;;;5042172;28;61932;-82
2023/04/27 03:19:45;;;;;;;;;16.75;14.25;;;;;;;;5041949;28;61789;-81
2023/04/27 03:22:11;;;;;;;;;18.00;15.50;;;;;;;;5042488;28;61966;-81
2023/04/27 03:24:36;;;;;;;;;12.25;12.25;;;;;;;;5041013;28;62604;-82
2023/04/27 03:27:01;;;;;;;;;23.00;19.50;;;;;;;;5040561;28;62036;-82
2023/04/27 03:29:27;;;;;;;;;20.75;17.25;;;;;;;;5041811;28;61986;-81
2023/04/27 03:31:52;;;;;;;;;18.00;17.00;;;;;;;;5041623;28;61774;-82
2023/04/27 03:34:19;;;;;;;;;32.50;25.00;;;;;;;;5041018;28;62962;-81
2023/04/27 03:36:45;;;;;;;;;24.50;20.75;;;;;;;;5041597;28;61772;-82
2023/04/27 03:39:10;;;;;;;;;19.50;17.25;;;;;;;;5041582;28;61874;-81
2023/04/27 03:41:35;;;;;;;;;20.25;14.75;;;;;;;;5041424;28;61660;-82
2023/04/27 03:44:01;;;;;;;;;22.00;16.75;;;;;;;;5040881;28;61911;-82
2023/04/27 03:46:26;;;;;;;;;24.00;19.75;;;;;;;;5041919;28;62000;-82
2023/04/27 03:48:51;;;;;;;;;26.50;22.00;;;;;;;;5041768;28;61814;-81
2023/04/27 03:51:17;;;;;;;;;18.25;16.25;;;;;;;;5041777;28;61798;-81
2023/04/27 03:53:42;;;;;;;;;21.50;20.00;;;;;;;;5040066;28;61884;-81
2023/04/27 03:56:07;;;;;;;;;27.00;20.00;;;;;;;;5041456;28;61843;-82
2023/04/27 03:58:33;;;;;;;;;22.00;18.00;;;;;;;;5041578;28;61811;-81
2023/04/27 04:00:58;;;;;;;;;27.50;18.75;;;;;;;;5041815;28;61764;-81
2023/04/27 04:03:23;;;;;;;;;24.25;20.50;;;;;;;;5040372;28;61857;-81
2023/04/27 04:05:48;;;;;;;;;33.00;20.50;;;;;;;;5039944;28;62090;-82
2023/04/27 04:08:13;;;;;;;;;16.75;16.00;;;;;;;;5041398;28;61845;-81
2023/04/27 04:10:39;;;;;;;;;21.00;19.00;;;;;;;;5040035;28;61915;-81
2023/04/27 04:13:04;;;;;;;;;20.00;16.25;;;;;;;;5040753;28;62650;-81
2023/04/27 04:15:29;;;;;;;;;26.75;19.25;;;;;;;;5041363;28;61973;-82
2023/04/27 04:17:54;;;;;;;;;23.50;17.25;;;;;;;;5041269;28;61910;-81
2023/04/27 04:20:20;;;;;;;;;26.75;22.75;;;;;;;;5041714;28;61783;-81
2023/04/27 04:22:45;;;;;;;;;27.00;22.50;;;;;;;;5040769;28;62560;-81
2023/04/27 04:25:11;;;;;;;;;23.00;19.75;;;;;;;;5040742;28;61861;-82
2023/04/27 04:27:37;;;;;;;;;27.00;21.75;;;;;;;;5041519;28;61710;-82
2023/04/27 04:30:04;;;;;;;;;24.00;18.50;;;;;;;;5060710;28;61771;-81
2023/04/27 04:32:30;;;;;;;;;27.00;23.00;;;;;;;;5043898;28;62187;-82
2023/04/27 04:34:55;;;;;;;;;28.75;23.25;;;;;;;;5043890;28;61914;-81
2023/04/27 04:37:21;;;;;;;;;21.00;20.25;;;;;;;;5043306;28;61730;-82
2023/04/27 04:39:47;;;;;;;;;19.25;16.50;;;;;;;;5043542;28;61924;-82
2023/04/27 04:42:12;;;;;;;;;22.75;14.75;;;;;;;;5042625;28;63658;-82
2023/04/27 04:44:37;;;;;;;;;20.50;16.00;;;;;;;;5044280;28;61838;-82
2023/04/27 04:47:03;;;;;;;;;24.25;17.50;;;;;;;;5043452;28;61867;-81
2023/04/27 04:49:28;;;;;;;;;16.50;15.00;;;;;;;;5044449;28;61961;-82
2023/04/27 04:51:53;;;;;;;;;21.00;14.00;;;;;;;;5043408;28;61751;-82
2023/04/27 04:54:18;;;;;;;;;20.50;15.50;;;;;;;;5043076;28;61952;-81
2023/04/27 04:56:44;;;;;;;;;17.75;15.75;;;;;;;;5044217;28;62377;-82
2023/04/27 04:59:09;;;;;;;;;22.25;19.00;;;;;;;;5044087;28;61818;-82
2023/04/27 05:01:35;;;;;;;;;17.25;14.75;;;;;;;;5043231;28;62176;-81
2023/04/27 05:04:00;;;;;;;;;19.75;19.00;;;;;;;;5043531;28;61830;-82
2023/04/27 05:06:26;;;;;;;;;23.75;17.25;;;;;;;;5044146;28;61795;-81
2023/04/27 05:08:51;;;;;;;;;27.00;21.50;;;;;;;;5029304;28;62035;-81
2023/04/27 05:11:17;;;;;;;;;29.00;22.75;;;;;;;;5023407;28;61708;-81
2023/04/27 05:13:42;;;;;;;;;30.50;21.75;;;;;;;;5029033;28;61766;-81
2023/04/27 05:16:07;;;;;;;;;22.00;19.25;;;;;;;;5027812;28;61985;-83
2023/04/27 05:18:33;;;;;;;;;27.50;22.00;;;;;;;;5025899;28;62008;-81
2023/04/27 05:21:00;;;;;;;;;23.50;21.25;;;;;;;;5041033;28;63422;-82
2023/04/27 05:23:26;;;;;;;;;21.25;19.25;;;;;;;;5038612;28;61750;-82
2023/04/27 05:25:52;;;;;;;;;21.00;20.25;;;;;;;;5043831;28;61703;-82
2023/04/27 05:28:17;;;;;;;;;20.25;18.25;;;;;;;;5041317;28;61892;-83
2023/04/27 05:30:42;;;;;;;;;21.25;19.00;;;;;;;;5023910;28;61841;-82
2023/04/27 05:33:07;;;;;;;;;25.00;17.50;;;;;;;;5022619;28;61782;-83
2023/04/27 05:35:33;;;;;;;;;25.75;20.00;;;;;;;;5023280;28;61900;-83
2023/04/27 05:37:58;;;;;;;;;16.75;15.75;;;;;;;;5023457;28;61683;-82
2023/04/27 05:40:24;;;;;;;;;22.75;18.50;;;;;;;;5025854;28;62758;-83
2023/04/27 05:42:49;;;;;;;;;18.75;16.50;;;;;;;;5039380;28;61951;-83
2023/04/27 05:45:15;;;;;;;;;27.50;17.00;;;;;;;;5031294;28;62060;-83
2023/04/27 05:47:40;;;;;;;;;22.00;18.00;;;;;;;;5031545;28;61784;-83
2023/04/27 05:50:06;;;;;;;;;18.25;18.25;;;;;;;;5031059;28;63789;-81
2023/04/27 05:52:31;;;;;;;;;20.50;20.00;;;;;;;;5023658;28;61843;-80
2023/04/27 05:55:00;;;;;;;;;20.00;18.50;;;;;;;;5022296;28;62154;-80
2023/04/27 05:57:25;;;;;;;;;23.50;14.50;;;;;;;;5022545;28;62099;-81
2023/04/27 05:59:51;;;;;;;;;22.25;20.00;;;;;;;;5020556;28;63631;-80
2023/04/27 06:02:16;;;;;;;;;27.25;21.75;;;;;;;;5024188;28;62006;-81
2023/04/27 06:04:42;;;;;;;;;18.25;12.50;;;;;;;;5024116;28;62252;-81
2023/04/27 06:07:08;;;;;;;;;17.50;13.00;;;;;;;;5020945;28;62502;-80
2023/04/27 06:09:33;;;;;;;;;21.25;18.75;;;;;;;;5019786;28;63817;-80
2023/04/27 06:11:58;;;;;;;;;22.25;16.50;;;;;;;;5022390;28;61829;-81
2023/04/27 06:14:24;;;;;;;;;16.00;13.75;;;;;;;;5032873;28;61863;-83
2023/04/27 06:16:49;;;;;;;;;21.25;13.00;;;;;;;;5042380;28;61872;-81
2023/04/27 06:19:15;;;;;;;;;15.50;15.25;;;;;;;;5059438;28;61966;-81
2023/04/27 06:21:40;;;;;;;;;20.25;14.00;;;;;;;;5061801;28;61927;-81
2023/04/27 06:24:05;;;;;;;;;12.50;10.75;;;;;;;;5053471;28;61922;-81
2023/04/27 06:26:31;;;;;;;;;15.50;11.25;;;;;;;;5042066;28;62071;-81
2023/04/27 06:28:56;;;;;;;;;16.00;15.50;;;;;;;;5041623;28;62000;-80
2023/04/27 06:31:21;;;;;;;;;13.75;11.75;;;;;;;;5042131;28;61958;-81
2023/04/27 06:33:46;;;;;;;;;16.75;12.50;;;;;;;;5041063;28;61786;-80
2023/04/27 06:36:12;;;;;;;;;11.50;9.50;;;;;;;;5042170;28;61890;-81
2023/04/27 06:38:37;;;;;;;;;12.25;11.00;;;;;;;;5035560;28;63624;-82
2023/04/27 06:41:03;;;;;;;;;16.75;13.00;;;;;;;;5030826;28;62250;-82
2023/04/27 06:43:28;;;;;;;;;17.75;13.00;;;;;;;;5030621;28;61813;-82
2023/04/27 06:45:53;;;;;;;;;16.25;12.50;;;;;;;;5028773;28;61843;-81
2023/04/27 06:48:19;;;;;;;;;14.00;12.00;;;;;;;;5030551;28;62651;-81
2023/04/27 06:50:44;;;;;;;;;15.00;9.50;;;;;;;;5030503;28;61921;-81
2023/04/27 06:53:09;;;;;;;;;14.75;13.50;;;;;;;;5032827;28;61927;-81
2023/04/27 06:55:35;;;;;;;;;12.50;11.50;;;;;;;;5026234;28;61737;-81
2023/04/27 06:58:01;;;;;;;;;19.25;12.25;;;;;;;;5039064;28;62808;-82
2023/04/27 07:00:26;;;;;;;;;11.00;10.25;;;;;;;;5024702;28;61848;-82
2023/04/27 07:02:51;;;;;;;;;13.75;12.50;;;;;;;;5021219;28;61759;-81
2023/04/27 07:05:17;;;;;;;;;13.25;11.75;;;;;;;;5021154;28;61731;-82
2023/04/27 07:07:42;;;;;;;;;18.25;15.75;;;;;;;;5021419;28;61945;-83
2023/04/27 07:10:08;;;;;;;;;15.25;12.50;;;;;;;;5021835;28;62038;-82
2023/04/27 07:12:33;;;;;;;;;17.00;14.50;;;;;;;;5024227;28;61880;-81
2023/04/27 07:14:58;;;;;;;;;14.50;12.50;;;;;;;;5035322;28;61897;-81
2023/04/27 07:17:23;;;;;;;;;14.75;12.00;;;;;;;;5030210;28;62709;-80
2023/04/27 07:19:49;;;;;;;;;18.25;12.75;;;;;;;;5025420;28;61948;-81
2023/04/27 07:22:14;;;;;;;;;18.75;15.00;;;;;;;;5034303;28;61974;-81
2023/04/27 07:24:40;;;;;;;;;12.25;11.50;;;;;;;;5034219;28;62299;-80
2023/04/27 07:27:05;;;;;;;;;14.50;11.50;;;;;;;;5041381;28;61907;-80
2023/04/27 07:29:30;;;;;;;;;11.75;10.25;;;;;;;;5040237;28;61702;-80
2023/04/27 07:31:57;;;;;;;;;17.00;13.75;;;;;;;;5050074;28;61932;-80
2023/04/27 07:34:22;;;;;;;;;16.75;11.75;;;;;;;;5047974;28;62014;-81
2023/04/27 07:36:48;;;;;;;;;12.25;11.50;;;;;;;;5059593;28;63977;-81
2023/04/27 07:39:13;;;;;;;;;11.75;10.50;;;;;;;;5048217;28;61918;-84
2023/04/27 07:41:38;;;;;;;;;14.25;12.00;;;;;;;;5040041;28;61692;-82
2023/04/27 07:44:04;;;;;;;;;17.75;13.00;;;;;;;;5040416;28;61936;-81
2023/04/27 07:46:30;;;;;;;;;16.25;12.00;;;;;;;;5026391;28;61942;-81
2023/04/27 07:48:58;;;;;;;;;14.75;12.75;;;;;;;;5039985;28;61720;-82
2023/04/27 07:51:24;;;;;;;;;17.75;13.75;;;;;;;;5035509;28;61814;-81
2023/04/27 07:53:49;;;;;;;;;11.00;10.00;;;;;;;;5027262;28;61816;-82
2023/04/27 07:56:15;;;;;;;;;15.50;12.00;;;;;;;;5028201;28;62136;-83
2023/04/27 07:58:40;;;;;;;;;15.00;14.75;;;;;;;;5021993;28;62710;-81
2023/04/27 08:01:05;;;;;;;;;17.75;13.00;;;;;;;;5020292;28;62119;-81
2023/04/27 08:03:30;;;;;;;;;11.00;11.00;;;;;;;;5020659;28;61854;-83
2023/04/27 08:05:56;;;;;;;;;15.25;10.25;;;;;;;;5019971;28;62008;-83
2023/04/27 08:08:21;;;;;;;;;8.00;8.00;;;;;;;;5018806;28;62065;-82
2023/04/27 08:10:46;;;;;;;;;14.25;11.00;;;;;;;;5019453;28;61998;-83
2023/04/27 08:13:12;;;;;;;;;12.50;9.00;;;;;;;;5020858;28;62098;-83
2023/04/27 08:15:37;;;;;;;;;10.25;8.25;;;;;;;;5038693;28;62040;-83
2023/04/27 08:18:02;;;;;;;;;15.25;9.50;;;;;;;;5020763;28;61965;-84
2023/04/27 08:20:28;;;;;;;;;13.25;12.75;;;;;;;;5028857;28;61853;-82
2023/04/27 08:22:53;;;;;;;;;12.75;10.25;;;;;;;;5025877;28;61797;-82
2023/04/27 08:25:18;;;;;;;;;11.25;9.25;;;;;;;;5029787;28;62793;-83
2023/04/27 08:27:43;;;;;;;;;9.00;8.75;;;;;;;;5033112;28;61779;-83
2023/04/27 08:30:09;;;;;;;;;10.25;9.50;;;;;;;;5031672;28;62045;-84
2023/04/27 08:32:35;;;;;;;;;12.50;9.75;;;;;;;;5038224;28;61706;-83
2023/04/27 08:35:00;;;;;;;;;13.50;11.25;;;;;;;;5039466;28;61773;-84
2023/04/27 08:37:25;;;;;;;;;12.25;10.75;;;;;;;;5039792;28;61699;-83
2023/04/27 08:39:50;;;;;;;;;11.50;9.00;;;;;;;;5038352;28;61884;-83
2023/04/27 08:42:15;;;;;;;;;8.00;7.50;;;;;;;;5041003;28;61812;-83
2023/04/27 08:44:41;;;;;;;;;11.75;9.75;;;;;;;;5038141;28;63863;-84
2023/04/27 08:47:07;;;;;;;;;9.00;8.25;;;;;;;;5039227;28;61831;-83
2023/04/27 08:49:33;;;;;;;;;11.25;9.00;;;;;;;;5033834;28;61779;-84
2023/04/27 08:51:58;;;;;;;;;7.75;7.00;;;;;;;;5029849;28;61940;-85
2023/04/27 08:54:23;;;;;;;;;9.50;8.00;;;;;;;;5021960;28;63169;-86
2023/04/27 08:56:49;;;;;;;;;10.75;9.00;;;;;;;;5023678;28;61885;-84
2023/04/27 08:59:15;;;;;;;;;12.75;8.00;;;;;;;;5026270;28;61955;-86
2023/04/27 09:01:47;;;;;;;;;12.50;9.00;;;;;;;;5022832;28;61786;-85
2023/04/27 09:04:13;;;;;;;;;10.75;8.75;;;;;;;;5051515;28;63770;-86
2023/04/27 09:06:38;;;;;;;;;11.25;8.50;;;;;;;;5030941;28;62159;-85
2023/04/27 09:09:03;;;;;;;;;9.25;8.00;;;;;;;;5024159;28;61964;-86
2023/04/27 09:11:32;;;;;;;;;7.00;6.00;;;;;;;;5029103;28;62071;-84
2023/04/27 09:13:58;;;;;;;;;5.00;5.00;;;;;;;;5029693;28;63980;-84
2023/04/27 09:16:25;;;;;;;;;8.00;8.00;;;;;;;;5027742;28;61813;-85
2023/04/27 09:18:50;;;;;;;;;7.00;7.00;;;;;;;;5031015;28;61753;-85
2023/04/27 09:21:26;;;;;;;;;10.50;8.00;;;;;;;;5032449;28;61901;-85
2023/04/27 09:23:51;;;;;;;;;6.25;5.50;;;;;;;;5038109;28;62402;-84
2023/04/27 09:26:20;;;;;;;;;13.75;6.75;;;;;;;;5041191;28;62013;-85
2023/04/27 09:28:47;;;;;;;;;5.50;5.50;;;;;;;;5032914;28;62020;-84
2023/04/27 09:31:12;;;;;;;;;11.00;6.00;;;;;;;;5032769;28;62045;-85
2023/04/27 09:33:38;;;;;;;;;8.75;7.25;;;;;;;;5028922;28;62210;-84
2023/04/27 09:36:04;;;;;;;;;7.25;6.25;;;;;;;;5033663;28;61895;-83
2023/04/27 09:38:30;;;;;;;;;9.25;8.25;;;;;;;;5030456;28;62014;-83
2023/04/27 09:40:56;;;;;;;;;11.75;5.00;;;;;;;;5033680;28;62025;-84
2023/04/27 09:43:22;;;;;;;;;10.25;6.75;;;;;;;;5029711;28;64726;-85
2023/04/27 09:45:48;;;;;;;;;9.00;7.25;;;;;;;;5030653;28;61994;-85
2023/04/27 09:48:14;;;;;;;;;7.50;7.00;;;;;;;;5033149;28;61771;-84
2023/04/27 09:50:41;;;;;;;;;7.00;5.75;;;;;;;;5031367;28;62119;-84
2023/04/27 09:53:13;;;;;;;;;6.00;6.00;;;;;;;;5031108;28;62009;-83
2023/04/27 09:55:39;;;;;;;;;9.00;6.50;;;;;;;;5032306;28;62091;-85
2023/04/27 09:58:07;;;;;;;;;5.00;3.50;;;;;;;;5032718;28;61893;-85
2023/04/27 10:00:36;;;;;;;;;7.75;6.00;;;;;;;;5036738;28;61853;-85
2023/04/27 10:03:09;;;;;;;;;5.75;3.00;;;;;;;;5039202;28;61839;-84
2023/04/27 10:06:07;;;;;;;;;4.00;4.00;;;;;;;;5054728;28;61882;-85
2023/04/27 10:08:34;;;;;;;;;4.00;4.00;;;;;;;;5012464;28;62011;-84
2023/04/27 10:10:59;;;;;;;;;4.00;4.00;;;;;;;;5036952;28;61802;-83
2023/04/27 10:13:25;;;;;;;;;3.75;3.50;;;;;;;;5029605;28;61896;-85
2023/04/27 10:15:51;;;;;;;;;3.75;3.75;;;;;;;;5042547;28;61965;-85
2023/04/27 10:18:29;;;;;;;;;3.50;3.50;;;;;;;;5036136;28;61698;-86
2023/04/27 10:21:09;;;;;;;;;4.00;4.00;;;;;;;;5034668;28;62313;-84
2023/04/27 10:23:44;;;;;;;;;6.25;5.00;;;;;;;;5039366;28;63344;-85
2023/04/27 10:26:09;;;;;;;;;6.75;4.50;;;;;;;;5029123;28;61995;-85
2023/04/27 10:28:37;;;;;;;;;3.00;3.00;;;;;;;;5040167;28;61925;-85
2023/04/27 10:31:08;;;;;;;;;3.50;3.50;;;;;;;;5034082;28;61803;-84
2023/04/27 10:33:41;;;;;;;;;6.00;4.50;;;;;;;;5021303;28;62148;-85
2023/04/27 10:36:12;;;;;;;;;3.00;3.00;;;;;;;;5028938;28;61840;-86
2023/04/27 10:38:39;;;;;;;;;3.00;3.00;;;;;;;;5030894;28;61900;-84
2023/04/27 10:41:12;;;;;;;;;6.50;4.00;;;;;;;;5025696;28;61940;-84
2023/04/27 10:43:37;;;;;;;;;4.75;4.00;;;;;;;;5035656;28;62088;-84
2023/04/27 10:46:10;;;;;;;;;7.00;4.75;;;;;;;;5031958;28;61704;-85
2023/04/27 10:48:36;;;;;;;;;4.50;4.50;;;;;;;;5030959;28;62598;-84
2023/04/27 10:51:02;;;;;;;;;5.00;4.00;;;;;;;;5031346;28;61823;-83
2023/04/27 10:53:32;;;;;;;;;5.25;4.00;;;;;;;;5036064;28;63909;-83
2023/04/27 10:55:58;;;;;;;;;4.75;4.00;;;;;;;;5027179;28;61715;-84
2023/04/27 10:58:23;;;;;;;;;3.00;3.00;;;;;;;;5029628;28;61961;-83
2023/04/27 11:00:48;;;;;;;;;5.50;3.75;;;;;;;;5033252;28;62142;-82
2023/04/27 11:03:15;;;;;;;;;3.00;2.50;;;;;;;;5029060;28;61955;-82
2023/04/27 11:05:41;;;;;;;;;3.75;3.75;;;;;;;;5032857;28;62091;-85
2023/04/27 11:08:08;;;;;;;;;5.25;5.25;;;;;;;;5038423;28;61826;-82
2023/04/27 11:10:36;;;;;;;;;4.75;4.75;;;;;;;;5037823;28;61633;-83
2023/04/27 11:13:11;;;;;;;;;3.75;3.75;;;;;;;;5038615;28;61750;-85
2023/04/27 11:15:43;;;;;;;;;5.00;3.75;;;;;;;;5037541;28;62139;-83
2023/04/27 11:18:09;;;;;;;;;4.50;3.75;;;;;;;;5033732;28;61827;-84
2023/04/27 11:20:34;;;;;;;;;5.75;4.00;;;;;;;;5032641;28;61727;-84
2023/04/27 11:23:00;;;;;;;;;3.75;3.75;;;;;;;;5029479;28;63648;-84
2023/04/27 11:25:28;;;;;;;;;2.75;2.75;;;;;;;;5031761;28;62311;-85
2023/04/27 11:27:54;;;;;;;;;2.33;2.00;;;;;;;;5032167;28;61887;-84
2023/04/27 11:30:20;;;;;;;;;3.00;3.00;;;;;;;;5029767;28;61766;-83
2023/04/27 11:32:46;;;;;;;;;3.33;3.33;;;;;;;;5028689;28;62512;-84
2023/04/27 11:35:12;;;;;;;;;2.67;2.67;;;;;;;;5031299;28;61761;-83
2023/04/27 11:37:37;;;;;;;;;2.00;1.00;;;;;;;;5030599;28;61963;-85
2023/04/27 11:40:03;;;;;;;;;2.67;2.33;;;;;;;;5031316;28;61838;-84
2023/04/27 11:42:30;;;;;;;;;5.00;5.00;;;;;;;;5029599;28;63762;-83
2023/04/27 11:44:56;;;;;;;;;3.33;3.33;;;;;;;;5031173;28;61888;-85
2023/04/27 11:47:22;;;;;;;;;2.33;2.33;;;;;;;;5033005;28;62040;-84
2023/04/27 11:49:48;;;;;;;;;5.33;4.00;;;;;;;;5027952;28;62235;-84
2023/04/27 11:52:14;;;;;;;;;4.33;4.33;;;;;;;;5032382;28;61991;-84
2023/04/27 11:54:51;;;;;;;;;6.00;3.67;;;;;;;;5028127;28;62200;-85
2023/04/27 11:57:17;;;;;;;;;4.00;4.00;;;;;;;;5026733;28;61819;-85
2023/04/27 11:59:42;;;;;;;;;4.67;3.67;;;;;;;;5031645;28;61828;-84
2023/04/27 12:02:07;;;;;;;;;4.33;4.33;;;;;;;;5029855;28;61798;-87
2023/04/27 12:04:33;;;;;;;;;3.25;3.25;;;;;;;;5031448;28;61873;-86
2023/04/27 12:07:00;;;;;;;;;3.00;2.50;;;;;;;;5028792;28;61811;-86
2023/04/27 12:09:29;;;;;;;;;5.25;5.00;;;;;;;;5036561;28;61870;-82
2023/04/27 12:11:55;;;;;;;;;3.50;3.50;;;;;;;;5026117;28;62238;-85
2023/04/27 12:14:20;;;;;;;;;3.00;3.00;;;;;;;;5036566;28;61945;-83
2023/04/27 12:16:46;;;;;;;;;3.67;3.67;;;;;;;;5037903;28;61992;-82
2023/04/27 12:19:11;;;;;;;;;7.00;4.00;;;;;;;;5038469;28;61944;-82
2023/04/27 12:21:37;;;;;;;;;3.67;3.00;;;;;;;;5039885;28;62344;-83
2023/04/27 12:24:02;;;;;;;;;3.00;2.00;;;;;;;;5057130;28;61798;-83
2023/04/27 12:26:28;;;;;;;;;3.00;3.00;;;;;;;;5037651;28;61993;-83
2023/04/27 12:28:53;;;;;;;;;3.67;2.67;;;;;;;;5027429;28;62076;-82
2023/04/27 12:31:23;;;;;;;;;2.33;2.33;;;;;;;;5034616;28;62020;-82
2023/04/27 12:33:48;;;;;;;;;3.33;3.33;;;;;;;;5040216;28;61942;-82
2023/04/27 12:36:13;;;;;;;;;5.00;3.33;;;;;;;;5021309;28;62122;-83
2023/04/27 12:38:38;;;;;;;;;2.67;2.67;;;;;;;;5020489;28;61817;-82
2023/04/27 12:41:04;;;;;;;;;4.00;4.00;;;;;;;;5019000;28;64751;-82
2023/04/27 12:43:29;;;;;;;;;4.67;4.67;;;;;;;;5021005;28;61780;-83
2023/04/27 12:45:55;;;;;;;;;4.33;3.33;;;;;;;;5022091;28;62190;-82
2023/04/27 12:48:22;;;;;;;;;2.00;2.00;;;;;;;;5020732;28;61852;-82
2023/04/27 12:50:47;;;;;;;;;4.67;3.00;;;;;;;;5035489;28;62335;-82
2023/04/27 12:53:12;;;;;;;;;2.33;2.33;;;;;;;;5033334;28;61836;-82
2023/04/27 12:55:37;;;;;;;;;5.33;3.00;;;;;;;;5039242;28;62087;-83
2023/04/27 12:58:03;;;;;;;;;2.33;2.33;;;;;;;;5043766;28;62199;-83
2023/04/27 13:00:29;;;;;;;;;2.67;2.33;;;;;;;;5041455;28;61775;-83
2023/04/27 13:02:55;;;;;;;;;5.67;3.33;;;;;;;;5043303;28;61897;-84
2023/04/27 13:05:21;;;;;;;;;6.00;3.00;;;;;;;;5042967;28;61701;-83
2023/04/27 13:07:46;;;;;;;;;3.00;3.00;;;;;;;;5036342;28;61926;-83
2023/04/27 13:10:11;;;;;;;;;6.67;3.33;;;;;;;;5021468;28;64391;-84
2023/04/27 13:12:37;;;;;;;;;3.33;3.33;;;;;;;;5025163;28;62364;-83
2023/04/27 13:15:02;;;;;;;;;3.67;3.67;;;;;;;;5023925;28;61901;-83
2023/04/27 13:17:27;;;;;;;;;2.33;2.33;;;;;;;;5022860;28;61716;-83
2023/04/27 13:19:53;;;;;;;;;2.67;2.67;;;;;;;;5023110;28;61712;-82
2023/04/27 13:22:19;;;;;;;;;3.33;3.33;;;;;;;;5035538;28;61793;-83
2023/04/27 13:24:45;;;;;;;;;3.33;2.67;;;;;;;;5043672;28;61759;-83
2023/04/27 13:27:10;;;;;;;;;4.67;3.33;;;;;;;;5042298;28;61969;-83
2023/04/27 13:29:35;;;;;;;;;3.33;2.67;;;;;;;;5041172;28;62189;-84
2023/04/27 13:32:01;;;;;;;;;4.33;4.33;;;;;;;;5042799;28;61886;-84
2023/04/27 13:34:26;;;;;;;;;4.33;4.33;;;;;;;;5042279;28;61932;-82
2023/04/27 13:36:51;;;;;;;;;4.00;3.67;;;;;;;;5042236;28;61810;-84
2023/04/27 13:39:16;;;;;;;;;3.00;3.00;;;;;;;;5039935;28;62941;-82
2023/04/27 13:41:42;;;;;;;;;4.67;3.67;;;;;;;;5031131;28;61870;-82
2023/04/27 13:44:08;;;;;;;;;2.67;2.67;;;;;;;;5028475;28;61893;-84
2023/04/27 13:46:33;;;;;;;;;4.67;3.00;;;;;;;;5036531;28;62261;-78
2023/04/27 13:48:59;;;;;;;;;2.67;2.67;;;;;;;;5032762;28;62086;-78
2023/04/27 13:51:25;;;;;;;;;3.00;3.00;;;;;;;;5033602;28;62246;-78
2023/04/27 13:53:51;;;;;;;;;5.00;3.67;;;;;;;;5035404;28;62684;-77
2023/04/27 13:56:16;;;;;;;;;3.67;3.67;;;;;;;;5034032;28;62015;-77
2023/04/27 13:58:43;;;;;;;;;6.33;3.33;;;;;;;;5034319;28;65514;-77
2023/04/27 14:01:10;;;;;;;;;3.00;3.00;;;;;;;;5029652;28;61968;-81
2023/04/27 14:03:36;;;;;;;;;2.67;2.67;;;;;;;;5033083;28;61964;-80
2023/04/27 14:06:04;;;;;;;;;4.00;3.33;;;;;;;;5033015;28;62124;-82
2023/04/27 14:08:30;;;;;;;;;2.67;2.67;;;;;;;;5023113;28;64442;-79
2023/04/27 14:10:58;;;;;;;;;3.00;2.67;;;;;;;;5025319;28;61857;-80
2023/04/27 14:13:23;;;;;;;;;1.33;1.33;;;;;;;;5026816;28;61907;-79
2023/04/27 14:15:48;;;;;;;;;3.67;3.67;;;;;;;;5031782;28;62038;-79
2023/04/27 14:18:14;;;;;;;;;3.33;2.00;;;;;;;;5033009;28;61988;-78
2023/04/27 14:20:41;;;;;;;;;2.33;2.33;;;;;;;;5034849;28;61981;-78
2023/04/27 14:23:06;;;;;;;;;4.33;2.67;;;;;;;;5032057;28;62489;-78